createdAt,value
2022-11-03T00:01:48.985Z,3.40
2022-11-03T00:07:01.877Z,3.25
2022-11-03T00:12:08.154Z,3.20
2022-11-03T00:17:10.830Z,3.28
2022-11-03T00:22:13.351Z,2.03
2022-11-03T00:27:17.364Z,2.55
2022-11-03T00:32:20.579Z,3.05
2022-11-03T00:37:23.083Z,3.00
2022-11-03T00:42:27.098Z,3.10
2022-11-03T00:47:29.731Z,2.95
2022-11-03T00:52:32.207Z,2.78
2022-11-03T00:57:36.227Z,2.72
2022-11-03T01:02:39.274Z,3.00
2022-11-03T01:07:42.147Z,2.92
2022-11-03T01:12:46.461Z,2.33
2022-11-03T01:17:49.059Z,3.67
2022-11-03T01:22:51.671Z,2.88
2022-11-03T01:27:55.660Z,2.65
2022-11-03T01:32:58.239Z,2.90
2022-11-03T01:38:00.787Z,3.13
2022-11-03T01:43:17.432Z,3.72
2022-11-03T01:48:20.954Z,3.17
2022-11-03T01:53:23.741Z,3.42
2022-11-03T02:10:35.843Z,3.30
2022-11-03T02:15:39.143Z,2.80
2022-11-03T02:20:42.798Z,3.40
2022-11-03T02:25:47.401Z,2.88
2022-11-03T02:30:53.172Z,3.40
2022-11-03T02:36:00.745Z,4.30
2022-11-03T02:41:07.068Z,3.47
2022-11-03T02:46:10.183Z,3.60
2022-11-03T02:51:13.113Z,4.13
2022-11-03T02:56:19.254Z,3.63
2022-11-03T03:01:25.673Z,3.95
2022-11-03T03:06:29.951Z,3.80
2022-11-03T03:16:50.811Z,3.38
2022-11-03T03:21:55.275Z,4.35
2022-11-03T03:27:00.159Z,4.03
2022-11-03T03:32:07.704Z,3.88
2022-11-03T03:37:12.087Z,3.90
2022-11-03T03:42:15.661Z,3.95
2022-11-03T03:47:22.432Z,3.78
2022-11-03T03:52:25.460Z,3.03
2022-11-03T03:57:29.159Z,3.08
2022-11-03T04:02:33.201Z,2.40
2022-11-03T04:07:51.585Z,3.72
2022-11-03T04:13:11.865Z,4.30
2022-11-03T04:18:41.651Z,3.20
2022-11-03T04:23:44.319Z,3.88
2022-11-03T04:28:47.189Z,4.45
2022-11-03T04:33:51.925Z,3.53
2022-11-03T04:38:54.716Z,3.75
2022-11-03T04:43:58.130Z,4.05
2022-11-03T04:49:02.853Z,4.47
2022-11-03T04:54:08.178Z,3.65
2022-11-03T04:59:12.458Z,4.20
2022-11-03T06:10:25.004Z,4.10
2022-11-03T06:15:32.212Z,5.05
2022-11-03T06:20:36.099Z,4.75
2022-11-03T06:25:43.400Z,2.50
2022-11-03T06:30:47.138Z,2.15
2022-11-03T06:35:50.241Z,1.58
2022-11-03T06:40:54.652Z,2.72
2022-11-03T06:45:58.833Z,4.70
2022-11-03T06:56:11.633Z,1.95
2022-11-03T07:01:22.421Z,3.55
2022-11-03T07:06:37.085Z,5.28
2022-11-03T07:11:53.340Z,2.70
2022-11-03T07:17:05.819Z,4.65
2022-11-03T07:28:06.792Z,5.28
2022-11-03T07:33:17.642Z,4.73
2022-11-03T07:38:27.059Z,4.70
2022-11-03T07:43:43.279Z,4.45
2022-11-03T07:49:26.638Z,4.95
2022-11-03T08:00:39.725Z,5.22
2022-11-03T08:05:54.512Z,5.10
2022-11-03T08:11:08.536Z,6.10
2022-11-03T08:16:30.104Z,6.10
2022-11-03T08:22:03.037Z,5.60
2022-11-03T08:27:12.499Z,5.57
2022-11-03T08:32:26.350Z,5.60
2022-11-03T08:37:47.400Z,6.07
2022-11-03T08:42:50.879Z,5.25
2022-11-03T08:47:56.637Z,5.28
2022-11-03T08:53:17.443Z,5.53
2022-11-03T08:58:30.732Z,5.88
2022-11-03T09:03:46.925Z,4.38
2022-11-03T09:14:30.629Z,5.00
2022-11-03T09:19:39.988Z,4.45
2022-11-03T09:24:48.073Z,4.68
2022-11-03T09:30:12.915Z,4.38
2022-11-03T09:35:36.210Z,4.85
2022-11-03T09:41:04.512Z,4.88
2022-11-03T09:46:36.376Z,5.10
2022-11-03T09:51:39.890Z,5.53
2022-11-03T09:57:03.178Z,4.90
2022-11-03T10:02:21.065Z,4.75
2022-11-03T10:07:29.433Z,4.93
2022-11-03T10:12:41.255Z,5.35
2022-11-03T10:17:48.188Z,5.30
2022-11-03T10:22:59.563Z,5.85
2022-11-03T10:28:31.087Z,5.45
2022-11-03T10:33:40.701Z,4.90
2022-11-03T10:39:18.210Z,5.20
2022-11-03T10:44:38.915Z,5.10
2022-11-03T10:49:56.107Z,4.68
2022-11-03T10:55:14.317Z,5.40
2022-11-03T11:00:36.109Z,4.72
2022-11-03T11:05:51.053Z,5.38
2022-11-03T11:10:56.835Z,4.60
2022-11-03T11:16:18.237Z,5.35
2022-11-03T11:26:51.447Z,4.20
2022-11-03T11:32:02.767Z,4.82
2022-11-03T11:37:24.072Z,4.97
2022-11-03T11:42:32.471Z,5.70
2022-11-03T11:47:49.229Z,5.10
2022-11-03T11:52:57.058Z,4.78
2022-11-03T11:58:02.560Z,4.35
2022-11-03T12:03:18.178Z,4.75
2022-11-03T12:08:38.880Z,5.15
2022-11-03T12:14:01.252Z,4.45
2022-11-03T12:19:31.203Z,5.13
2022-11-03T12:24:45.007Z,4.70
2022-11-03T12:29:54.066Z,5.20
2022-11-03T12:35:04.082Z,4.72
2022-11-03T12:40:31.664Z,4.55
2022-11-03T12:45:35.634Z,4.65
2022-11-03T12:50:43.138Z,4.80
2022-11-03T12:55:54.808Z,5.35
2022-11-03T13:01:09.544Z,5.23
2022-11-03T13:06:19.555Z,4.10
2022-11-03T13:11:48.709Z,5.68
2022-11-03T13:16:56.713Z,5.32
2022-11-03T13:22:05.419Z,4.88
2022-11-03T13:27:23.619Z,4.85
2022-11-03T13:32:36.194Z,5.18
2022-11-03T13:37:46.826Z,4.55
2022-11-03T13:42:59.439Z,5.75
2022-11-03T13:59:26.441Z,5.43
2022-11-03T14:04:42.402Z,5.20
2022-11-03T14:09:49.533Z,4.60
2022-11-03T14:14:54.665Z,5.30
2022-11-03T14:20:07.110Z,6.65
2022-11-03T14:25:20.700Z,5.15
2022-11-03T14:35:44.378Z,6.00
2022-11-03T14:41:09.768Z,6.32
2022-11-03T14:46:14.634Z,6.05
2022-11-03T14:51:46.306Z,6.60
2022-11-03T14:56:58.830Z,7.47
2022-11-03T15:02:12.434Z,6.70
2022-11-03T15:07:32.899Z,7.05
2022-11-03T15:12:39.162Z,7.30
2022-11-03T15:17:43.162Z,7.50
2022-11-03T15:28:17.373Z,6.90
2022-11-03T15:33:33.438Z,7.07
2022-11-03T15:38:38.077Z,7.53
2022-11-03T15:43:56.103Z,7.72
2022-11-03T15:49:01.825Z,7.35
2022-11-03T15:54:14.247Z,7.88
2022-11-03T15:59:28.795Z,7.90
2022-11-03T16:04:38.899Z,8.07
2022-11-03T16:09:44.270Z,8.77
2022-11-03T16:14:56.163Z,8.10
2022-11-03T16:20:10.920Z,8.07
2022-11-03T16:25:21.531Z,8.25
2022-11-03T16:30:33.907Z,8.50
2022-11-03T16:35:40.833Z,9.18
2022-11-03T16:40:57.029Z,8.43
2022-11-03T16:46:22.759Z,9.75
2022-11-03T16:51:28.242Z,9.00
2022-11-03T16:56:54.485Z,8.50
2022-11-03T17:07:29.086Z,8.40
2022-11-03T17:17:34.347Z,9.75
2022-11-03T17:22:38.926Z,9.27
2022-11-03T17:32:44.867Z,11.07
2022-11-03T17:37:48.952Z,10.20
2022-11-03T17:42:52.300Z,8.70
2022-11-03T17:47:55.341Z,6.57
2022-11-03T17:52:59.352Z,5.93
2022-11-03T18:03:04.996Z,6.00
2022-11-03T18:08:12.030Z,7.15
2022-11-03T18:13:25.751Z,7.78
2022-11-03T18:18:33.593Z,5.45
2022-11-03T18:28:40.096Z,8.57
2022-11-03T18:43:52.481Z,5.33
2022-11-03T18:48:55.231Z,7.82
2022-11-03T18:53:57.975Z,7.80
2022-11-03T18:59:01.999Z,8.25
2022-11-03T19:04:10.826Z,6.38
2022-11-03T19:09:14.631Z,8.23
2022-11-03T19:14:21.867Z,7.68
2022-11-03T19:19:28.185Z,5.85
2022-11-03T19:24:41.498Z,6.55
2022-11-03T19:29:46.382Z,7.40
2022-11-03T19:34:52.334Z,6.43
2022-11-03T19:39:56.000Z,5.20
2022-11-03T19:45:00.849Z,4.38
2022-11-03T19:50:05.490Z,3.35
2022-11-03T20:00:16.160Z,6.15
2022-11-03T20:05:18.704Z,4.78
2022-11-03T20:10:21.355Z,4.93
2022-11-03T20:15:25.743Z,7.07
2022-11-03T20:25:33.259Z,4.10
2022-11-03T20:30:37.356Z,8.10
2022-11-03T20:35:40.870Z,7.90
2022-11-03T20:40:43.598Z,8.65
2022-11-03T20:45:47.491Z,5.82
2022-11-03T20:50:50.336Z,11.88
2022-11-03T20:55:53.682Z,4.57
2022-11-03T21:00:57.727Z,4.75
2022-11-03T21:06:00.439Z,5.63
2022-11-03T21:11:23.227Z,5.15
2022-11-03T21:16:45.294Z,5.68
2022-11-03T21:21:47.846Z,6.90
2022-11-03T21:26:50.455Z,4.85
2022-11-03T21:31:54.377Z,6.88
2022-11-03T21:36:57.061Z,4.00
2022-11-03T21:42:17.124Z,6.93
2022-11-03T21:47:21.888Z,6.43
2022-11-03T21:52:31.884Z,7.13
2022-11-03T21:57:34.803Z,5.63
2022-11-03T22:02:40.471Z,6.80
2022-11-03T22:12:45.516Z,7.80
2022-11-03T22:17:49.459Z,6.75
2022-11-03T22:23:09.601Z,7.63
2022-11-03T22:28:14.740Z,8.45
2022-11-03T22:33:19.001Z,7.55
2022-11-03T22:38:43.726Z,7.60
2022-11-03T22:44:03.556Z,7.45
2022-11-03T22:49:09.633Z,8.40
2022-11-03T22:54:12.222Z,7.00
2022-11-03T22:59:14.762Z,7.65
2022-11-03T23:04:18.704Z,7.80
2022-11-03T23:09:21.202Z,8.02
2022-11-03T23:14:43.938Z,8.05
2022-11-03T23:20:04.962Z,6.68
2022-11-03T23:25:07.867Z,5.82
2022-11-03T23:30:10.733Z,4.50
2022-11-03T23:35:24.643Z,5.07
2022-11-03T23:40:27.295Z,3.20
2022-11-03T23:45:47.469Z,3.20
2022-11-03T23:50:51.472Z,3.70
